createdAt,value
2023-01-13T00:01:35.162Z,6.15
2023-01-13T00:04:20.144Z,5.87
2023-01-13T00:07:05.043Z,6.54
2023-01-13T00:09:49.960Z,6.93
2023-01-13T00:12:34.942Z,7.28
2023-01-13T00:15:19.798Z,6.95
2023-01-13T00:18:04.675Z,7.31
2023-01-13T00:20:49.645Z,7.39
2023-01-13T00:23:34.494Z,7.45
2023-01-13T00:26:19.544Z,7.34
2023-01-13T00:29:04.577Z,7.36
2023-01-13T00:31:49.435Z,7.31
2023-01-13T00:34:34.365Z,7.31
2023-01-13T00:37:19.093Z,7.29
2023-01-13T00:40:03.905Z,6.98
2023-01-13T00:42:48.691Z,7.11
2023-01-13T00:45:33.598Z,7.04
2023-01-13T00:48:18.584Z,7.39
2023-01-13T00:51:03.402Z,7.11
2023-01-13T00:53:48.397Z,7.48
2023-01-13T00:56:40.291Z,6.85
2023-01-13T00:59:25.766Z,6.79
2023-01-13T01:02:10.979Z,6.66
2023-01-13T01:04:56.251Z,6.71
2023-01-13T01:07:41.347Z,6.56
2023-01-13T01:10:26.170Z,6.62
2023-01-13T01:13:10.958Z,6.57
2023-01-13T01:15:55.812Z,6.75
2023-01-13T01:18:40.535Z,6.75
2023-01-13T01:21:25.334Z,6.16
2023-01-13T01:24:10.176Z,6.36
2023-01-13T01:26:55.251Z,6.59
2023-01-13T01:29:40.125Z,6.56
2023-01-13T01:32:25.025Z,6.70
2023-01-13T01:35:09.989Z,6.58
2023-01-13T01:37:54.829Z,6.53
2023-01-13T01:40:39.833Z,6.97
2023-01-13T01:43:24.660Z,7.26
2023-01-13T01:46:09.633Z,7.55
2023-01-13T01:48:54.450Z,7.52
2023-01-13T01:51:39.426Z,6.74
2023-01-13T01:54:24.161Z,6.36
2023-01-13T01:57:09.053Z,6.48
2023-01-13T01:59:54.073Z,6.72
2023-01-13T02:02:39.059Z,6.88
2023-01-13T02:05:23.832Z,6.83
2023-01-13T02:08:08.748Z,6.38
2023-01-13T02:10:53.601Z,6.22
2023-01-13T02:13:38.433Z,6.24
2023-01-13T02:16:23.383Z,6.42
2023-01-13T02:19:08.022Z,6.53
2023-01-13T02:21:52.894Z,6.55
2023-01-13T02:24:37.724Z,6.24
2023-01-13T02:27:22.492Z,6.13
2023-01-13T02:30:07.985Z,5.90
2023-01-13T02:32:52.939Z,6.06
2023-01-13T02:35:37.916Z,5.76
2023-01-13T02:38:22.834Z,5.92
2023-01-13T02:41:07.849Z,6.09
2023-01-13T02:43:52.582Z,5.93
2023-01-13T02:46:37.452Z,5.93
2023-01-13T02:49:22.236Z,6.29
2023-01-13T02:52:07.052Z,6.37
2023-01-13T02:54:52.037Z,6.40
2023-01-13T02:57:36.918Z,6.26
2023-01-13T03:00:21.816Z,6.44
2023-01-13T03:03:06.656Z,6.31
2023-01-13T03:05:51.474Z,6.72
2023-01-13T03:08:36.283Z,6.54
2023-01-13T03:11:21.153Z,6.27
2023-01-13T03:14:06.025Z,6.58
2023-01-13T03:16:50.926Z,6.47
2023-01-13T03:19:36.210Z,6.40
2023-01-13T03:22:21.026Z,6.21
2023-01-13T03:25:06.058Z,6.03
2023-01-13T03:27:50.816Z,6.48
2023-01-13T03:30:35.755Z,6.56
2023-01-13T03:33:20.562Z,6.35
2023-01-13T03:36:05.714Z,6.72
2023-01-13T03:38:50.473Z,5.90
2023-01-13T03:41:35.463Z,6.16
2023-01-13T03:44:20.465Z,6.38
2023-01-13T03:47:05.322Z,5.95
2023-01-13T03:49:50.170Z,6.71
2023-01-13T03:52:35.104Z,6.06
2023-01-13T03:55:20.112Z,5.89
2023-01-13T03:58:04.980Z,5.86
2023-01-13T04:00:49.868Z,6.24
2023-01-13T04:03:34.739Z,6.18
2023-01-13T04:06:19.561Z,6.37
2023-01-13T04:09:05.040Z,6.32
2023-01-13T04:11:49.799Z,6.25
2023-01-13T04:14:34.609Z,6.53
2023-01-13T04:17:19.392Z,6.62
2023-01-13T04:20:04.405Z,6.67
2023-01-13T04:22:49.223Z,6.36
2023-01-13T04:25:34.065Z,6.84
2023-01-13T04:28:18.885Z,6.77
2023-01-13T04:31:03.875Z,6.85
2023-01-13T04:33:49.160Z,6.57
2023-01-13T04:36:33.973Z,6.63
2023-01-13T04:39:19.028Z,6.26
2023-01-13T04:42:03.980Z,5.62
2023-01-13T04:44:48.879Z,5.62
2023-01-13T04:47:33.682Z,5.49
2023-01-13T04:50:18.653Z,5.56
2023-01-13T04:53:03.474Z,5.25
2023-01-13T04:55:48.388Z,5.20
2023-01-13T04:58:33.196Z,5.20
2023-01-13T05:01:18.099Z,5.35
2023-01-13T05:04:03.472Z,5.08
2023-01-13T05:06:48.199Z,5.27
2023-01-13T05:09:33.221Z,5.37
2023-01-13T05:12:18.013Z,5.40
2023-01-13T05:15:02.895Z,5.51
2023-01-13T05:17:47.745Z,5.34
2023-01-13T05:20:32.629Z,5.21
2023-01-13T05:23:17.473Z,5.45
2023-01-13T05:26:02.438Z,5.45
2023-01-13T05:28:47.337Z,5.57
2023-01-13T05:31:32.229Z,5.46
2023-01-13T05:34:17.140Z,5.33
2023-01-13T05:37:02.025Z,5.19
2023-01-13T05:39:47.055Z,5.20
2023-01-13T05:42:31.870Z,5.12
2023-01-13T05:45:17.296Z,4.98
2023-01-13T05:48:02.150Z,5.09
2023-01-13T05:50:46.956Z,5.19
2023-01-13T05:53:32.045Z,5.19
2023-01-13T05:56:16.918Z,5.29
2023-01-13T05:59:01.837Z,5.12
2023-01-13T06:01:46.673Z,5.21
2023-01-13T06:04:32.956Z,5.33
2023-01-13T06:07:17.823Z,5.63
2023-01-13T06:10:02.691Z,5.00
2023-01-13T06:12:47.736Z,5.08
2023-01-13T06:15:32.498Z,5.15
2023-01-13T06:18:17.396Z,5.14
2023-01-13T06:21:02.283Z,5.25
2023-01-13T06:23:47.205Z,4.98
2023-01-13T06:26:31.990Z,5.08
2023-01-13T06:29:16.888Z,5.17
2023-01-13T06:32:01.775Z,5.06
2023-01-13T06:34:46.506Z,4.81
2023-01-13T06:37:31.389Z,5.06
2023-01-13T06:40:16.224Z,4.92
2023-01-13T06:43:01.191Z,5.05
2023-01-13T06:45:45.915Z,4.86
2023-01-13T06:48:30.788Z,5.14
2023-01-13T06:51:15.679Z,4.83
2023-01-13T06:54:00.681Z,4.82
2023-01-13T06:56:45.518Z,5.05
2023-01-13T06:59:30.393Z,5.03
2023-01-13T07:02:15.379Z,4.87
2023-01-13T07:05:00.131Z,5.27
2023-01-13T07:07:45.125Z,4.80
2023-01-13T07:10:30.014Z,5.05
2023-01-13T07:13:14.810Z,5.11
2023-01-13T07:15:59.654Z,5.30
2023-01-13T07:18:44.551Z,4.80
2023-01-13T07:21:29.538Z,5.21
2023-01-13T07:24:14.373Z,5.08
2023-01-13T07:26:59.250Z,4.81
2023-01-13T07:29:44.220Z,4.81
2023-01-13T07:32:29.216Z,5.02
2023-01-13T07:35:14.008Z,5.19
2023-01-13T07:37:58.864Z,5.32
2023-01-13T07:40:43.647Z,5.33
2023-01-13T07:43:28.510Z,4.99
2023-01-13T07:46:13.379Z,4.91
2023-01-13T07:48:58.195Z,4.88
2023-01-13T07:51:43.136Z,5.24
2023-01-13T07:54:39.682Z,5.31
2023-01-13T07:57:25.979Z,5.09
2023-01-13T08:00:12.871Z,5.04
2023-01-13T08:02:58.532Z,5.44
2023-01-13T08:05:43.579Z,5.58
2023-01-13T08:08:28.515Z,5.76
2023-01-13T08:11:13.283Z,5.62
2023-01-13T08:13:58.077Z,5.44
2023-01-13T08:16:43.046Z,5.62
2023-01-13T08:19:27.680Z,5.57
2023-01-13T08:22:12.636Z,5.36
2023-01-13T08:24:57.629Z,5.71
2023-01-13T08:27:42.462Z,5.76
2023-01-13T08:30:27.300Z,5.28
2023-01-13T08:33:12.210Z,5.68
2023-01-13T08:35:56.974Z,5.60
2023-01-13T08:38:41.950Z,5.47
2023-01-13T08:41:26.928Z,5.34
2023-01-13T08:44:12.061Z,5.53
2023-01-13T08:46:56.996Z,5.20
2023-01-13T08:49:41.992Z,4.94
2023-01-13T08:52:26.945Z,5.20
2023-01-13T08:55:11.776Z,5.33
2023-01-13T08:58:14.035Z,5.38
2023-01-13T09:00:59.842Z,5.64
2023-01-13T09:03:45.090Z,5.50
2023-01-13T09:06:30.009Z,5.68
2023-01-13T09:09:14.801Z,5.46
2023-01-13T09:11:59.788Z,5.81
2023-01-13T09:14:44.524Z,5.82
2023-01-13T09:17:29.492Z,5.80
2023-01-13T09:20:14.254Z,5.30
2023-01-13T09:22:59.122Z,5.83
2023-01-13T09:25:43.992Z,5.74
2023-01-13T09:28:28.782Z,6.48
2023-01-13T09:31:13.736Z,5.97
2023-01-13T09:33:58.667Z,6.24
2023-01-13T09:36:43.468Z,6.52
2023-01-13T09:39:28.294Z,6.80
2023-01-13T09:42:13.160Z,6.46
2023-01-13T09:44:58.117Z,6.51
2023-01-13T09:47:43.013Z,6.17
2023-01-13T09:50:27.898Z,6.11
2023-01-13T09:53:12.826Z,6.09
2023-01-13T09:55:57.728Z,5.72
2023-01-13T09:58:42.448Z,5.31
2023-01-13T10:01:27.410Z,5.66
2023-01-13T10:04:12.695Z,6.26
2023-01-13T10:06:57.562Z,6.25
2023-01-13T10:09:42.412Z,6.17
2023-01-13T10:12:27.348Z,6.63
2023-01-13T10:15:12.246Z,6.87
2023-01-13T10:17:57.086Z,6.68
2023-01-13T10:20:42.115Z,6.67
2023-01-13T10:23:26.968Z,6.94
2023-01-13T10:26:12.032Z,6.17
2023-01-13T10:28:56.947Z,6.14
2023-01-13T10:31:41.821Z,6.74
2023-01-13T10:34:26.689Z,7.23
2023-01-13T10:37:11.520Z,6.64
2023-01-13T10:39:56.379Z,7.05
2023-01-13T10:42:41.138Z,6.73
2023-01-13T10:45:26.149Z,6.77
2023-01-13T10:48:11.003Z,6.24
2023-01-13T10:50:55.907Z,6.96
2023-01-13T10:53:40.671Z,7.09
2023-01-13T10:56:25.507Z,7.45
2023-01-13T10:59:10.325Z,7.71
2023-01-13T11:01:55.303Z,7.55
2023-01-13T11:04:40.341Z,7.88
2023-01-13T11:07:28.235Z,7.56
2023-01-13T11:10:13.365Z,7.86
2023-01-13T11:12:58.245Z,7.79
2023-01-13T11:15:43.278Z,7.89
2023-01-13T11:18:28.235Z,7.88
2023-01-13T11:21:13.043Z,8.08
2023-01-13T11:23:57.948Z,7.77
2023-01-13T11:26:42.755Z,7.81
2023-01-13T11:29:27.780Z,7.98
2023-01-13T11:32:12.630Z,7.65
2023-01-13T11:34:57.566Z,7.92
2023-01-13T11:37:42.506Z,7.95
2023-01-13T11:40:27.389Z,7.66
2023-01-13T11:43:12.353Z,7.86
2023-01-13T11:45:57.131Z,7.78
2023-01-13T11:48:42.029Z,7.52
2023-01-13T11:51:26.917Z,7.11
2023-01-13T11:54:11.960Z,7.47
2023-01-13T11:56:56.773Z,7.55
2023-01-13T11:59:41.619Z,8.09
2023-01-13T12:02:26.572Z,8.34
2023-01-13T12:05:11.946Z,8.16
2023-01-13T12:07:56.902Z,7.95
2023-01-13T12:10:42.615Z,7.91
2023-01-13T12:13:27.462Z,7.45
2023-01-13T12:16:12.461Z,7.55
2023-01-13T12:18:57.321Z,7.53
2023-01-13T12:21:42.231Z,7.66
2023-01-13T12:24:27.192Z,7.97
2023-01-13T12:27:12.066Z,8.12
2023-01-13T12:29:56.920Z,8.73
2023-01-13T12:32:41.783Z,8.82
2023-01-13T12:35:26.692Z,9.00
2023-01-13T12:38:11.539Z,8.71
2023-01-13T12:40:56.335Z,8.92
2023-01-13T12:43:41.314Z,9.43
2023-01-13T12:46:26.167Z,9.78
2023-01-13T12:49:11.058Z,10.02
2023-01-13T12:51:55.965Z,10.33
2023-01-13T12:54:40.919Z,10.65
2023-01-13T12:57:26.315Z,11.00
2023-01-13T13:00:11.170Z,9.84
2023-01-13T13:02:56.093Z,9.65
2023-01-13T13:05:40.984Z,10.25
2023-01-13T13:08:25.960Z,9.55
2023-01-13T13:11:10.745Z,9.70
2023-01-13T13:13:55.654Z,9.48
2023-01-13T13:16:40.726Z,8.54
2023-01-13T13:19:25.493Z,8.79
2023-01-13T13:22:10.472Z,8.86
2023-01-13T13:24:55.307Z,9.20
2023-01-13T13:27:40.309Z,9.36
2023-01-13T13:30:25.032Z,9.94
2023-01-13T13:33:09.975Z,9.69
2023-01-13T13:35:54.816Z,9.47
2023-01-13T13:38:39.735Z,9.68
2023-01-13T13:41:24.541Z,9.59
2023-01-13T13:44:09.188Z,9.56
2023-01-13T13:46:54.055Z,10.56
2023-01-13T13:49:38.961Z,10.19
2023-01-13T13:52:23.868Z,9.77
2023-01-13T13:55:08.758Z,9.17
2023-01-13T13:57:53.773Z,9.45
2023-01-13T14:00:38.462Z,8.48
2023-01-13T14:03:23.379Z,8.52
2023-01-13T14:06:08.324Z,8.85
2023-01-13T14:08:53.307Z,8.78
2023-01-13T14:11:38.244Z,8.14
2023-01-13T14:14:23.232Z,7.82
2023-01-13T14:17:08.146Z,8.40
2023-01-13T14:19:53.063Z,8.54
2023-01-13T14:22:37.880Z,8.58
2023-01-13T14:25:22.631Z,9.12
2023-01-13T14:28:07.547Z,9.54
2023-01-13T14:30:52.447Z,9.95
2023-01-13T14:33:38.652Z,10.63
2023-01-13T14:36:24.115Z,11.08
2023-01-13T14:39:08.925Z,11.62
2023-01-13T14:41:53.889Z,11.20
2023-01-13T14:44:38.760Z,11.48
2023-01-13T14:47:23.703Z,11.61
2023-01-13T14:50:08.864Z,11.91
2023-01-13T14:52:53.796Z,11.78
2023-01-13T14:55:38.733Z,11.87
2023-01-13T14:58:23.652Z,11.52
2023-01-13T15:01:08.722Z,11.19
2023-01-13T15:03:53.480Z,10.74
2023-01-13T15:06:38.372Z,10.01
2023-01-13T15:09:23.100Z,8.96
2023-01-13T15:12:08.008Z,9.15
2023-01-13T15:14:52.839Z,9.56
2023-01-13T15:17:38.752Z,9.53
2023-01-13T15:20:23.737Z,9.45
2023-01-13T15:23:08.584Z,8.91
2023-01-13T15:25:53.462Z,8.65
2023-01-13T15:28:38.160Z,7.88
2023-01-13T15:31:23.216Z,8.14
2023-01-13T15:34:08.562Z,7.83
2023-01-13T15:36:53.491Z,8.03
2023-01-13T15:39:38.338Z,8.25
2023-01-13T15:42:23.344Z,8.08
2023-01-13T15:45:08.169Z,8.36
2023-01-13T15:47:52.881Z,7.86
2023-01-13T15:50:37.899Z,7.84
2023-01-13T15:53:23.384Z,7.49
2023-01-13T15:56:08.456Z,7.55
2023-01-13T15:58:53.173Z,7.91
2023-01-13T16:01:38.072Z,7.94
2023-01-13T16:04:22.989Z,7.82
2023-01-13T16:07:07.851Z,7.46
2023-01-13T16:09:52.724Z,7.28
2023-01-13T16:12:37.660Z,7.26
2023-01-13T16:15:22.608Z,7.57
2023-01-13T16:18:07.626Z,7.21
2023-01-13T16:20:52.542Z,7.45
2023-01-13T16:23:37.312Z,7.37
2023-01-13T16:26:22.195Z,7.43
2023-01-13T16:29:06.981Z,7.88
2023-01-13T16:31:51.901Z,7.91
2023-01-13T16:34:36.807Z,7.86
2023-01-13T16:37:21.738Z,7.93
2023-01-13T16:40:06.762Z,7.95
2023-01-13T16:42:51.555Z,7.97
2023-01-13T16:45:36.498Z,8.21
2023-01-13T16:48:21.303Z,8.24
2023-01-13T16:51:06.138Z,8.00
2023-01-13T16:53:50.936Z,7.89
2023-01-13T16:56:35.894Z,7.89
2023-01-13T16:59:20.965Z,7.92
2023-01-13T17:02:05.750Z,7.67
2023-01-13T17:04:50.775Z,7.97
2023-01-13T17:07:35.591Z,8.04
2023-01-13T17:10:20.481Z,7.69
2023-01-13T17:13:15.660Z,7.32
2023-01-13T17:16:01.811Z,7.40
2023-01-13T17:18:48.153Z,7.30
2023-01-13T17:21:33.032Z,7.75
2023-01-13T17:24:17.975Z,7.81
2023-01-13T17:27:02.995Z,7.76
2023-01-13T17:29:47.765Z,8.03
2023-01-13T17:32:32.567Z,7.57
2023-01-13T17:35:17.634Z,7.28
2023-01-13T17:38:02.569Z,7.42
2023-01-13T17:40:47.940Z,7.30
2023-01-13T17:43:32.779Z,7.45
2023-01-13T17:46:17.738Z,7.14
2023-01-13T17:49:02.575Z,7.24
2023-01-13T17:51:47.470Z,7.43
2023-01-13T17:54:32.417Z,7.65
2023-01-13T17:57:17.330Z,7.61
2023-01-13T18:00:02.426Z,7.43
2023-01-13T18:02:47.363Z,7.43
2023-01-13T18:05:33.195Z,7.56
2023-01-13T18:08:17.987Z,7.46
2023-01-13T18:11:02.957Z,7.71
2023-01-13T18:13:47.800Z,7.79
2023-01-13T18:16:32.657Z,7.71
2023-01-13T18:19:17.645Z,7.66
2023-01-13T18:22:02.351Z,7.20
2023-01-13T18:24:47.229Z,6.91
2023-01-13T18:27:31.968Z,6.56
2023-01-13T18:30:16.958Z,6.40
2023-01-13T18:33:01.771Z,6.49
2023-01-13T18:35:46.827Z,6.46
2023-01-13T18:38:31.704Z,6.49
2023-01-13T18:41:16.687Z,6.59
2023-01-13T18:44:01.585Z,6.54
2023-01-13T18:46:46.421Z,6.78
2023-01-13T18:49:31.338Z,7.23
2023-01-13T18:52:16.139Z,7.62
2023-01-13T18:55:01.153Z,7.72
2023-01-13T18:57:46.024Z,7.79
2023-01-13T19:00:31.064Z,7.56
2023-01-13T19:03:16.067Z,7.64
2023-01-13T19:06:00.881Z,8.12
2023-01-13T19:08:45.801Z,7.97
2023-01-13T19:11:30.646Z,8.05
2023-01-13T19:14:15.670Z,8.31
2023-01-13T19:17:00.653Z,7.96
2023-01-13T19:19:45.970Z,7.73
2023-01-13T19:22:30.993Z,7.93
2023-01-13T19:25:16.045Z,7.63
2023-01-13T19:28:00.825Z,8.05
2023-01-13T19:30:45.732Z,7.92
2023-01-13T19:33:30.713Z,7.96
2023-01-13T19:36:15.561Z,7.93
2023-01-13T19:39:00.382Z,7.71
2023-01-13T19:41:45.223Z,6.90
2023-01-13T19:44:30.166Z,7.19
2023-01-13T19:47:15.181Z,7.22
2023-01-13T19:50:00.024Z,6.62
2023-01-13T19:52:44.833Z,7.04
2023-01-13T19:55:29.676Z,6.58
2023-01-13T19:58:14.772Z,6.56
2023-01-13T20:00:59.709Z,6.58
2023-01-13T20:03:44.631Z,6.80
2023-01-13T20:06:29.508Z,6.86
2023-01-13T20:09:14.489Z,6.86
2023-01-13T20:11:59.214Z,6.69
2023-01-13T20:14:44.058Z,6.85
2023-01-13T20:17:30.751Z,6.71
2023-01-13T20:20:15.849Z,6.48
2023-01-13T20:23:00.665Z,6.87
2023-01-13T20:25:45.516Z,6.92
2023-01-13T20:28:30.472Z,7.14
2023-01-13T20:31:15.298Z,7.10
2023-01-13T20:34:00.103Z,6.99
2023-01-13T20:36:45.049Z,6.74
2023-01-13T20:39:29.963Z,6.52
2023-01-13T20:42:14.954Z,6.27
2023-01-13T20:44:59.849Z,6.91
2023-01-13T20:47:44.753Z,6.59
2023-01-13T20:50:29.465Z,7.04
2023-01-13T20:53:14.270Z,6.46
2023-01-13T20:55:59.291Z,6.86
2023-01-13T20:58:44.275Z,6.61
2023-01-13T21:01:29.227Z,6.67
2023-01-13T21:04:14.066Z,6.84
2023-01-13T21:06:59.068Z,6.79
2023-01-13T21:09:43.925Z,6.62
2023-01-13T21:12:28.780Z,6.35
2023-01-13T21:15:13.756Z,6.32
2023-01-13T21:17:58.672Z,6.77
2023-01-13T21:20:43.484Z,6.80
2023-01-13T21:23:28.373Z,7.27
2023-01-13T21:26:13.217Z,6.91
2023-01-13T21:28:57.938Z,6.87
2023-01-13T21:31:42.854Z,6.54
2023-01-13T21:34:27.708Z,6.49
2023-01-13T21:37:12.622Z,6.42
2023-01-13T21:39:57.562Z,6.06
2023-01-13T21:42:42.473Z,5.61
2023-01-13T21:45:27.470Z,6.33
2023-01-13T21:48:12.118Z,6.26
2023-01-13T21:50:56.984Z,6.55
2023-01-13T21:53:41.963Z,6.79
2023-01-13T21:56:26.894Z,6.71
2023-01-13T21:59:11.681Z,6.67
2023-01-13T22:02:12.347Z,6.22
2023-01-13T22:05:01.447Z,6.72
2023-01-13T22:07:46.269Z,6.47
2023-01-13T22:10:31.078Z,6.70
2023-01-13T22:13:15.844Z,6.72
2023-01-13T22:16:00.783Z,6.73
2023-01-13T22:18:45.743Z,6.89
2023-01-13T22:21:30.801Z,6.76
2023-01-13T22:24:15.544Z,6.97
2023-01-13T22:27:00.407Z,7.10
2023-01-13T22:29:45.249Z,6.34
2023-01-13T22:32:30.078Z,6.47
2023-01-13T22:35:15.049Z,6.40
2023-01-13T22:37:59.981Z,6.19
2023-01-13T22:40:44.962Z,6.22
2023-01-13T22:43:29.823Z,6.19
2023-01-13T22:46:14.778Z,6.08
2023-01-13T22:48:59.569Z,6.34
2023-01-13T22:51:44.458Z,6.25
2023-01-13T22:54:29.220Z,6.33
2023-01-13T22:57:14.383Z,6.18
2023-01-13T22:59:59.600Z,6.25
2023-01-13T23:02:44.449Z,6.71
2023-01-13T23:05:29.444Z,6.30
2023-01-13T23:08:14.244Z,6.49
2023-01-13T23:10:59.180Z,6.57
2023-01-13T23:13:43.957Z,7.11
2023-01-13T23:16:28.916Z,7.28
2023-01-13T23:19:13.787Z,6.93
2023-01-13T23:21:58.690Z,6.85
2023-01-13T23:24:43.534Z,6.35
2023-01-13T23:27:28.447Z,6.50
2023-01-13T23:30:13.502Z,6.28
2023-01-13T23:32:58.216Z,6.25
2023-01-13T23:35:43.085Z,5.51
2023-01-13T23:38:27.961Z,5.44
2023-01-13T23:41:12.811Z,5.94
2023-01-13T23:43:57.587Z,5.50
2023-01-13T23:46:42.519Z,5.64
2023-01-13T23:49:27.531Z,5.58
2023-01-13T23:52:12.316Z,6.10
2023-01-13T23:54:57.210Z,5.80
2023-01-13T23:57:42.167Z,5.59
